createdAt,value
2023-03-17T00:02:24.027Z,1.60
2023-03-17T00:04:52.504Z,1.40
2023-03-17T00:07:19.686Z,1.63
2023-03-17T00:09:46.834Z,1.50
2023-03-17T00:12:15.339Z,1.55
2023-03-17T00:14:44.479Z,1.40
2023-03-17T00:17:12.825Z,1.40
2023-03-17T00:19:40.274Z,1.30
2023-03-17T00:22:15.295Z,1.67
2023-03-17T00:24:42.560Z,1.50
2023-03-17T00:27:13.868Z,1.38
2023-03-17T00:29:41.113Z,1.60
2023-03-17T00:32:18.315Z,1.38
2023-03-17T00:34:46.270Z,1.45
2023-03-17T00:37:13.766Z,1.40
2023-03-17T00:39:40.998Z,1.20
2023-03-17T00:42:08.241Z,1.40
2023-03-17T00:44:35.324Z,1.10
2023-03-17T00:47:02.656Z,1.40
2023-03-17T00:49:29.817Z,1.30
2023-03-17T00:51:56.972Z,1.27
2023-03-17T00:54:24.134Z,1.38
2023-03-17T00:56:52.535Z,1.45
2023-03-17T00:59:26.114Z,1.50
2023-03-17T01:01:53.367Z,1.38
2023-03-17T01:04:20.594Z,1.40
2023-03-17T01:06:48.922Z,1.65
2023-03-17T01:09:20.250Z,1.00
2023-03-17T01:14:16.831Z,1.30
2023-03-17T01:16:44.794Z,1.33
2023-03-17T01:19:13.270Z,1.10
2023-03-17T01:21:40.812Z,1.95
2023-03-17T01:24:08.381Z,1.27
2023-03-17T01:26:36.018Z,1.02
2023-03-17T01:29:03.182Z,1.52
2023-03-17T01:31:30.489Z,1.35
2023-03-17T01:33:57.890Z,1.23
2023-03-17T01:36:26.844Z,1.10
2023-03-17T01:38:53.968Z,1.15
2023-03-17T01:41:21.179Z,1.38
2023-03-17T01:43:48.547Z,1.50
2023-03-17T01:46:21.464Z,0.95
2023-03-17T01:48:54.484Z,1.05
2023-03-17T01:51:27.724Z,1.20
2023-03-17T01:53:55.209Z,1.15
2023-03-17T01:56:23.649Z,1.27
2023-03-17T01:58:52.966Z,0.95
2023-03-17T02:01:21.844Z,0.73
2023-03-17T02:03:49.129Z,0.90
2023-03-17T02:06:16.913Z,0.90
2023-03-17T02:08:44.272Z,1.10
2023-03-17T02:11:11.472Z,0.95
2023-03-17T02:13:38.943Z,1.00
2023-03-17T02:16:07.166Z,1.00
2023-03-17T02:18:34.749Z,1.00
2023-03-17T02:21:20.498Z,0.80
2023-03-17T02:23:47.608Z,1.05
2023-03-17T02:26:14.885Z,1.17
2023-03-17T02:28:46.016Z,1.50
2023-03-17T02:31:13.288Z,1.00
2023-03-17T02:33:40.708Z,1.00
2023-03-17T02:36:09.545Z,0.82
2023-03-17T02:38:36.760Z,0.85
2023-03-17T02:41:03.909Z,1.17
2023-03-17T02:43:31.131Z,1.45
2023-03-17T02:45:58.244Z,0.82
2023-03-17T02:48:25.548Z,1.08
2023-03-17T02:50:52.687Z,1.02
2023-03-17T02:53:19.850Z,1.77
2023-03-17T02:55:47.024Z,1.10
2023-03-17T02:58:14.291Z,0.70
2023-03-17T03:00:41.501Z,1.15
2023-03-17T03:03:08.616Z,1.38
2023-03-17T03:05:36.031Z,1.05
2023-03-17T03:08:03.226Z,1.10
2023-03-17T03:10:30.917Z,1.05
2023-03-17T03:12:58.394Z,0.90
2023-03-17T03:15:25.474Z,1.00
2023-03-17T03:17:52.563Z,0.95
2023-03-17T03:20:20.945Z,0.82
2023-03-17T03:22:48.113Z,1.00
2023-03-17T03:25:15.233Z,0.93
2023-03-17T03:27:42.326Z,1.10
2023-03-17T03:30:10.476Z,1.08
2023-03-17T03:32:37.842Z,1.00
2023-03-17T03:35:05.264Z,1.27
2023-03-17T03:37:32.425Z,1.05
2023-03-17T03:39:59.567Z,0.90
2023-03-17T03:42:27.448Z,1.23
2023-03-17T03:44:54.558Z,1.50
2023-03-17T03:47:21.680Z,1.00
2023-03-17T03:49:48.871Z,1.20
2023-03-17T03:52:15.978Z,1.17
2023-03-17T03:54:43.050Z,1.20
2023-03-17T03:57:10.379Z,1.70
2023-03-17T03:59:37.754Z,1.30
2023-03-17T04:02:05.287Z,1.45
2023-03-17T04:04:32.836Z,1.23
2023-03-17T04:07:00.257Z,1.13
2023-03-17T04:09:27.396Z,1.00
2023-03-17T04:11:54.517Z,1.10
2023-03-17T04:14:21.685Z,1.00
2023-03-17T04:16:48.779Z,1.10
2023-03-17T04:19:16.411Z,1.33
2023-03-17T04:21:43.543Z,1.20
2023-03-17T04:24:10.645Z,1.33
2023-03-17T04:26:37.880Z,1.08
2023-03-17T04:29:08.035Z,1.20
2023-03-17T04:31:35.991Z,1.13
2023-03-17T04:34:03.146Z,1.50
2023-03-17T04:36:30.248Z,1.63
2023-03-17T04:38:57.428Z,1.27
2023-03-17T04:41:24.579Z,1.58
2023-03-17T04:43:52.035Z,1.55
2023-03-17T04:46:19.127Z,1.55
2023-03-17T04:48:46.456Z,1.30
2023-03-17T04:51:13.563Z,1.58
2023-03-17T04:53:40.664Z,1.95
2023-03-17T04:56:08.025Z,1.60
2023-03-17T04:58:35.186Z,1.77
2023-03-17T05:01:03.649Z,1.45
2023-03-17T05:03:31.053Z,1.80
2023-03-17T05:05:58.433Z,1.80
2023-03-17T05:08:26.622Z,1.77
2023-03-17T05:10:53.805Z,2.15
2023-03-17T05:13:21.036Z,1.90
2023-03-17T05:15:48.554Z,1.83
2023-03-17T05:18:16.398Z,2.00
2023-03-17T05:20:43.695Z,1.80
2023-03-17T05:23:11.303Z,1.70
2023-03-17T05:25:38.671Z,2.00
2023-03-17T05:28:07.021Z,2.22
2023-03-17T05:30:36.582Z,2.45
2023-03-17T05:33:03.892Z,1.90
2023-03-17T05:35:31.059Z,1.95
2023-03-17T05:37:58.177Z,2.10
2023-03-17T05:40:25.337Z,1.60
2023-03-17T05:42:52.421Z,1.83
2023-03-17T05:45:19.519Z,2.05
2023-03-17T05:47:47.581Z,2.47
2023-03-17T05:50:14.921Z,2.90
2023-03-17T05:52:42.107Z,2.47
2023-03-17T05:55:09.636Z,2.38
2023-03-17T05:57:36.711Z,2.55
2023-03-17T06:00:05.252Z,2.25
2023-03-17T06:02:32.863Z,2.28
2023-03-17T06:05:00.052Z,2.35
2023-03-17T06:07:31.227Z,2.45
2023-03-17T06:10:05.348Z,2.25
2023-03-17T06:12:32.775Z,2.47
2023-03-17T06:14:59.898Z,2.35
2023-03-17T06:17:27.062Z,2.67
2023-03-17T06:19:54.138Z,2.47
2023-03-17T06:22:21.213Z,2.33
2023-03-17T06:24:48.406Z,2.40
2023-03-17T06:27:15.532Z,2.28
2023-03-17T06:29:42.657Z,2.20
2023-03-17T06:32:20.438Z,3.15
2023-03-17T06:34:48.253Z,2.83
2023-03-17T06:37:16.528Z,2.67
2023-03-17T06:39:43.859Z,1.92
2023-03-17T06:42:10.955Z,2.58
2023-03-17T06:44:38.206Z,2.38
2023-03-17T06:47:05.381Z,2.40
2023-03-17T06:49:32.522Z,2.90
2023-03-17T06:51:59.991Z,2.53
2023-03-17T06:54:27.104Z,2.90
2023-03-17T06:56:54.407Z,2.90
2023-03-17T06:59:21.995Z,1.95
2023-03-17T07:01:49.556Z,2.83
2023-03-17T07:04:17.118Z,2.92
2023-03-17T07:06:44.965Z,3.05
2023-03-17T07:09:12.078Z,2.75
2023-03-17T07:11:39.244Z,2.65
2023-03-17T07:14:06.782Z,2.40
2023-03-17T07:16:34.066Z,2.72
2023-03-17T07:19:02.025Z,2.40
2023-03-17T07:21:29.235Z,2.63
2023-03-17T07:23:56.408Z,2.83
2023-03-17T07:26:23.540Z,2.30
2023-03-17T07:28:50.888Z,2.90
2023-03-17T07:31:18.152Z,3.50
2023-03-17T07:33:45.358Z,2.70
2023-03-17T07:36:13.230Z,2.90
2023-03-17T07:38:40.394Z,2.35
2023-03-17T07:41:10.113Z,2.90
2023-03-17T07:43:38.005Z,2.83
2023-03-17T07:46:06.377Z,2.47
2023-03-17T07:48:34.350Z,2.60
2023-03-17T07:51:01.536Z,2.53
2023-03-17T07:53:29.808Z,3.30
2023-03-17T07:55:56.940Z,2.78
2023-03-17T07:58:24.090Z,2.65
2023-03-17T08:00:51.827Z,2.40
2023-03-17T08:03:19.490Z,1.90
2023-03-17T08:05:47.244Z,2.47
2023-03-17T08:08:14.428Z,2.80
2023-03-17T08:10:41.549Z,2.58
2023-03-17T08:13:09.115Z,2.20
2023-03-17T08:15:36.733Z,1.90
2023-03-17T08:18:03.893Z,2.03
2023-03-17T08:20:31.797Z,2.40
2023-03-17T08:22:59.143Z,2.70
2023-03-17T08:25:26.352Z,2.72
2023-03-17T08:27:54.140Z,2.60
2023-03-17T08:30:21.590Z,2.60
2023-03-17T08:32:49.264Z,2.08
2023-03-17T08:35:17.214Z,2.20
2023-03-17T08:37:44.867Z,2.50
2023-03-17T08:40:12.808Z,2.70
2023-03-17T08:42:41.005Z,3.33
2023-03-17T08:45:09.902Z,2.58
2023-03-17T08:47:38.135Z,3.30
2023-03-17T08:50:08.560Z,2.45
2023-03-17T08:52:36.447Z,2.50
2023-03-17T08:55:03.874Z,2.60
2023-03-17T08:57:31.568Z,3.33
2023-03-17T08:59:59.005Z,2.60
2023-03-17T09:02:26.704Z,2.75
2023-03-17T09:04:54.291Z,3.00
2023-03-17T09:07:21.733Z,3.20
2023-03-17T09:09:49.364Z,2.70
2023-03-17T09:12:16.968Z,2.58
2023-03-17T09:14:44.967Z,2.88
2023-03-17T09:17:14.443Z,2.22
2023-03-17T09:19:41.948Z,1.92
2023-03-17T09:22:13.344Z,2.92
2023-03-17T09:24:40.549Z,2.72
2023-03-17T09:27:10.027Z,2.33
2023-03-17T09:29:37.468Z,2.10
2023-03-17T09:32:04.707Z,2.40
2023-03-17T09:34:32.038Z,2.60
2023-03-17T09:36:59.781Z,2.30
2023-03-17T09:39:27.542Z,2.55
2023-03-17T09:41:57.044Z,2.70
2023-03-17T09:44:27.109Z,2.35
2023-03-17T09:46:57.163Z,2.15
2023-03-17T09:49:29.401Z,2.38
2023-03-17T09:51:56.916Z,2.15
2023-03-17T09:54:29.442Z,2.10
2023-03-17T09:57:17.939Z,2.58
2023-03-17T09:59:47.429Z,2.15
2023-03-17T10:02:25.880Z,2.40
2023-03-17T10:04:53.254Z,2.00
2023-03-17T10:07:24.181Z,2.33
2023-03-17T10:09:57.450Z,2.08
2023-03-17T10:12:43.609Z,1.77
2023-03-17T10:15:17.080Z,1.70
2023-03-17T10:17:44.296Z,1.75
2023-03-17T10:20:26.641Z,2.10
2023-03-17T10:22:58.304Z,2.00
2023-03-17T10:25:36.085Z,1.73
2023-03-17T10:28:09.024Z,2.55
2023-03-17T10:30:36.354Z,1.52
2023-03-17T10:33:06.984Z,2.38
2023-03-17T10:35:36.366Z,2.25
2023-03-17T10:38:14.969Z,1.70
2023-03-17T10:40:42.719Z,1.80
2023-03-17T10:43:15.464Z,2.63
2023-03-17T10:45:47.815Z,1.90
2023-03-17T10:48:19.266Z,1.83
2023-03-17T10:50:49.348Z,1.90
2023-03-17T10:53:28.461Z,1.70
2023-03-17T10:56:02.454Z,1.90
2023-03-17T10:58:29.583Z,1.77
2023-03-17T11:00:58.502Z,1.73
2023-03-17T11:03:28.100Z,1.55
2023-03-17T11:06:01.551Z,2.65
2023-03-17T11:08:54.789Z,1.35
2023-03-17T11:11:26.980Z,1.52
2023-03-17T11:14:04.287Z,1.60
2023-03-17T11:16:35.780Z,2.28
2023-03-17T11:19:04.194Z,1.85
2023-03-17T11:21:37.312Z,1.95
2023-03-17T11:24:10.471Z,1.88
2023-03-17T11:26:50.611Z,1.48
2023-03-17T11:29:23.877Z,1.90
2023-03-17T11:32:03.061Z,6.25
2023-03-17T11:34:34.009Z,1.77
2023-03-17T11:37:13.273Z,1.83
2023-03-17T11:39:56.590Z,1.90
2023-03-17T11:42:23.723Z,2.20
2023-03-17T11:45:09.882Z,1.85
2023-03-17T11:47:37.263Z,2.13
2023-03-17T11:50:12.225Z,1.73
2023-03-17T11:52:45.667Z,1.77
2023-03-17T11:55:45.453Z,2.20
2023-03-17T11:58:16.868Z,1.40
2023-03-17T12:00:50.742Z,2.00
2023-03-17T12:03:26.698Z,1.23
2023-03-17T12:05:56.210Z,2.20
2023-03-17T12:08:32.336Z,1.60
2023-03-17T12:11:01.050Z,1.60
2023-03-17T12:13:28.151Z,1.70
2023-03-17T12:16:04.467Z,1.70
2023-03-17T12:18:37.511Z,1.80
2023-03-17T12:21:20.644Z,1.73
2023-03-17T12:23:49.602Z,1.95
2023-03-17T12:26:19.643Z,1.77
2023-03-17T12:28:50.278Z,1.35
2023-03-17T12:31:22.782Z,1.73
2023-03-17T12:34:09.293Z,2.05
2023-03-17T12:36:38.101Z,1.80
2023-03-17T12:39:16.293Z,2.20
2023-03-17T12:41:50.479Z,1.92
2023-03-17T12:44:41.903Z,2.58
2023-03-17T12:47:21.187Z,2.78
2023-03-17T12:49:57.581Z,1.98
2023-03-17T12:52:43.498Z,2.22
2023-03-17T12:55:14.258Z,1.85
2023-03-17T12:57:43.779Z,1.85
2023-03-17T13:00:25.216Z,1.92
2023-03-17T13:05:29.112Z,2.00
2023-03-17T13:07:57.541Z,2.20
2023-03-17T13:10:50.559Z,2.65
2023-03-17T13:13:36.436Z,2.10
2023-03-17T13:16:05.724Z,2.05
2023-03-17T13:18:36.010Z,1.63
2023-03-17T13:21:04.109Z,2.00
2023-03-17T13:23:50.301Z,1.85
2023-03-17T13:26:21.610Z,2.03
2023-03-17T13:31:30.724Z,2.50
2023-03-17T13:34:02.835Z,2.33
2023-03-17T13:36:33.622Z,2.15
2023-03-17T13:39:18.264Z,2.40
2023-03-17T13:42:11.983Z,2.20
2023-03-17T13:44:44.450Z,2.55
2023-03-17T13:47:27.078Z,2.08
2023-03-17T13:49:58.952Z,2.30
2023-03-17T13:52:56.305Z,2.45
2023-03-17T13:55:26.202Z,2.88
2023-03-17T13:58:16.482Z,2.70
2023-03-17T14:00:48.988Z,2.35
2023-03-17T14:03:16.452Z,2.53
2023-03-17T14:05:47.070Z,2.40
2023-03-17T14:08:32.385Z,2.70
2023-03-17T14:11:01.074Z,2.30
2023-03-17T14:13:35.092Z,2.47
2023-03-17T14:16:05.406Z,2.28
2023-03-17T14:18:37.687Z,3.13
2023-03-17T14:21:10.556Z,2.60
2023-03-17T14:23:38.694Z,2.90
2023-03-17T14:26:07.785Z,2.60
2023-03-17T14:28:35.578Z,2.38
2023-03-17T14:31:03.985Z,3.20
2023-03-17T14:33:33.686Z,3.40
2023-03-17T14:36:02.363Z,5.15
2023-03-17T14:38:31.231Z,2.38
2023-03-17T14:41:18.278Z,2.95
2023-03-17T14:43:45.901Z,2.92
2023-03-17T14:46:26.937Z,2.55
2023-03-17T14:49:05.440Z,3.58
2023-03-17T14:51:37.072Z,3.55
2023-03-17T14:54:10.771Z,2.92
2023-03-17T14:56:39.238Z,3.15
2023-03-17T14:59:27.180Z,2.75
2023-03-17T15:01:55.648Z,2.90
2023-03-17T15:04:24.786Z,3.13
2023-03-17T15:06:58.110Z,2.90
2023-03-17T15:09:27.207Z,3.42
2023-03-17T15:11:56.262Z,3.15
2023-03-17T15:14:31.065Z,3.25
2023-03-17T15:16:58.289Z,3.00
2023-03-17T15:19:28.937Z,3.22
2023-03-17T15:21:59.900Z,3.00
2023-03-17T15:24:44.025Z,3.58
2023-03-17T15:27:15.890Z,3.05
2023-03-17T15:29:43.012Z,3.60
2023-03-17T15:32:12.208Z,3.45
2023-03-17T15:34:39.345Z,3.38
2023-03-17T15:37:10.511Z,3.20
2023-03-17T15:39:37.881Z,3.38
2023-03-17T15:42:05.598Z,3.40
2023-03-17T15:44:32.669Z,3.25
2023-03-17T15:46:59.740Z,3.03
2023-03-17T15:49:27.112Z,3.55
2023-03-17T15:51:54.342Z,3.45
2023-03-17T15:54:21.617Z,2.83
2023-03-17T15:56:48.787Z,2.90
2023-03-17T15:59:16.144Z,2.75
2023-03-17T16:01:43.353Z,3.15
2023-03-17T16:04:10.805Z,3.03
2023-03-17T16:06:37.946Z,3.80
2023-03-17T16:09:07.370Z,3.58
2023-03-17T16:11:34.519Z,4.50
2023-03-17T16:14:01.601Z,4.75
2023-03-17T16:16:35.853Z,3.72
2023-03-17T16:19:04.695Z,3.80
2023-03-17T16:21:32.346Z,3.20
2023-03-17T16:23:59.850Z,3.10
2023-03-17T16:26:27.036Z,3.33
2023-03-17T16:28:54.189Z,3.30
2023-03-17T16:31:22.964Z,3.20
2023-03-17T16:33:50.711Z,7.25
2023-03-17T16:36:19.024Z,4.43
2023-03-17T16:38:47.241Z,4.13
2023-03-17T16:41:17.249Z,3.63
2023-03-17T16:43:45.123Z,3.65
2023-03-17T16:46:12.639Z,3.75
2023-03-17T16:48:39.855Z,3.53
2023-03-17T16:51:08.156Z,3.63
2023-03-17T16:53:35.987Z,3.65
2023-03-17T16:56:03.345Z,3.30
2023-03-17T16:58:32.328Z,3.10
2023-03-17T17:01:01.245Z,3.80
2023-03-17T17:03:28.980Z,3.92
2023-03-17T17:05:56.352Z,3.28
2023-03-17T17:08:23.579Z,3.65
2023-03-17T17:10:51.182Z,3.63
2023-03-17T17:13:18.291Z,4.53
2023-03-17T17:15:45.708Z,3.53
2023-03-17T17:18:24.402Z,3.67
2023-03-17T17:20:52.220Z,3.80
2023-03-17T17:23:20.721Z,3.53
2023-03-17T17:25:48.253Z,4.85
2023-03-17T17:28:16.168Z,3.97
2023-03-17T17:30:45.239Z,3.90
2023-03-17T17:33:12.765Z,4.55
2023-03-17T17:35:40.244Z,3.65
2023-03-17T17:38:12.703Z,4.15
2023-03-17T17:40:39.770Z,3.80
2023-03-17T17:43:07.116Z,4.10
2023-03-17T17:45:34.274Z,3.92
2023-03-17T17:48:01.341Z,4.40
2023-03-17T17:50:30.879Z,4.13
2023-03-17T17:53:04.768Z,4.05
2023-03-17T17:55:32.786Z,4.75
2023-03-17T17:58:00.117Z,3.85
2023-03-17T18:00:27.512Z,4.05
2023-03-17T18:02:54.681Z,3.88
2023-03-17T18:05:21.887Z,3.92
2023-03-17T18:07:48.982Z,3.83
2023-03-17T18:10:19.756Z,4.07
2023-03-17T18:12:46.874Z,4.32
2023-03-17T18:15:13.987Z,4.10
2023-03-17T18:17:42.942Z,4.07
2023-03-17T18:20:14.388Z,4.53
2023-03-17T18:22:41.595Z,4.28
2023-03-17T18:25:10.054Z,5.38
2023-03-17T18:27:40.505Z,4.70
2023-03-17T18:30:08.789Z,4.35
2023-03-17T18:32:36.461Z,5.05
2023-03-17T18:35:07.210Z,4.43
2023-03-17T18:37:34.556Z,4.13
2023-03-17T18:40:18.954Z,4.32
2023-03-17T18:42:47.009Z,4.35
2023-03-17T18:45:14.246Z,4.70
2023-03-17T18:47:41.976Z,5.10
2023-03-17T18:50:10.681Z,5.22
2023-03-17T18:52:39.502Z,4.97
2023-03-17T18:55:07.269Z,5.53
2023-03-17T18:57:34.555Z,5.07
2023-03-17T19:00:01.727Z,4.97
2023-03-17T19:02:29.113Z,4.70
2023-03-17T19:04:56.211Z,5.68
2023-03-17T19:07:23.383Z,4.75
2023-03-17T19:09:50.957Z,5.35
2023-03-17T19:12:18.642Z,5.53
2023-03-17T19:14:46.042Z,5.80
2023-03-17T19:17:13.276Z,5.75
2023-03-17T19:19:41.410Z,5.40
2023-03-17T19:22:09.693Z,5.57
2023-03-17T19:24:37.610Z,5.47
2023-03-17T19:27:05.204Z,6.20
2023-03-17T19:29:33.418Z,5.75
2023-03-17T19:32:00.817Z,5.68
2023-03-17T19:34:27.957Z,5.68
2023-03-17T19:36:55.657Z,6.20
2023-03-17T19:39:22.840Z,5.90
2023-03-17T19:41:53.270Z,5.75
2023-03-17T19:44:21.298Z,5.90
2023-03-17T19:46:48.595Z,6.45
2023-03-17T19:49:15.931Z,5.88
2023-03-17T19:51:43.707Z,7.75
2023-03-17T19:54:11.191Z,8.25
2023-03-17T19:56:38.764Z,6.50
2023-03-17T19:59:06.936Z,6.80
2023-03-17T20:01:34.105Z,6.60
2023-03-17T20:04:01.324Z,6.40
2023-03-17T20:06:29.507Z,7.65
2023-03-17T20:08:56.598Z,7.50
2023-03-17T20:11:23.758Z,7.20
2023-03-17T20:13:51.146Z,7.00
2023-03-17T20:16:18.845Z,7.55
2023-03-17T20:18:46.079Z,8.55
2023-03-17T20:21:13.779Z,8.88
2023-03-17T20:23:40.951Z,8.13
2023-03-17T20:26:09.188Z,8.60
2023-03-17T20:28:36.649Z,8.48
2023-03-17T20:31:04.709Z,7.82
2023-03-17T20:33:33.448Z,8.07
2023-03-17T20:36:01.932Z,8.85
2023-03-17T20:38:29.285Z,8.60
2023-03-17T20:41:04.794Z,9.88
2023-03-17T20:43:34.157Z,8.00
2023-03-17T20:46:01.728Z,9.07
2023-03-17T20:48:30.151Z,9.50
2023-03-17T20:50:58.249Z,8.93
2023-03-17T20:53:25.336Z,8.10
2023-03-17T20:55:52.530Z,8.95
2023-03-17T20:58:19.979Z,7.22
2023-03-17T21:00:49.236Z,8.15
2023-03-17T21:03:18.005Z,9.50
2023-03-17T21:05:45.784Z,8.93
2023-03-17T21:08:13.151Z,9.70
2023-03-17T21:10:40.765Z,8.43
2023-03-17T21:13:07.961Z,9.60
2023-03-17T21:15:35.802Z,9.90
2023-03-17T21:18:03.022Z,9.35
2023-03-17T21:20:30.493Z,9.88
2023-03-17T21:22:57.848Z,10.23
2023-03-17T21:25:25.479Z,9.95
2023-03-17T21:27:52.817Z,10.70
2023-03-17T21:30:19.948Z,10.85
2023-03-17T21:32:47.145Z,10.88
2023-03-17T21:35:14.627Z,10.40
2023-03-17T21:37:41.792Z,11.30
2023-03-17T21:40:09.267Z,11.57
2023-03-17T21:42:36.365Z,10.63
2023-03-17T21:45:03.513Z,10.98
2023-03-17T21:47:30.793Z,11.00
2023-03-17T21:49:58.047Z,10.05
2023-03-17T21:52:26.024Z,10.43
2023-03-17T21:54:53.508Z,10.25
2023-03-17T21:57:20.631Z,8.45
2023-03-17T21:59:48.048Z,8.98
2023-03-17T22:02:18.214Z,9.60
2023-03-17T22:04:46.741Z,8.55
2023-03-17T22:07:14.342Z,10.25
2023-03-17T22:09:41.924Z,10.00
2023-03-17T22:12:09.175Z,9.50
2023-03-17T22:14:36.354Z,9.95
2023-03-17T22:17:05.463Z,9.73
2023-03-17T22:19:32.757Z,8.63
2023-03-17T22:21:59.914Z,9.68
2023-03-17T22:24:27.150Z,6.03
2023-03-17T22:26:55.586Z,9.85
2023-03-17T22:29:22.767Z,8.52
2023-03-17T22:31:50.007Z,7.90
2023-03-17T22:34:17.341Z,9.73
2023-03-17T22:36:44.431Z,8.40
2023-03-17T22:39:11.976Z,8.45
2023-03-17T22:41:39.239Z,9.63
2023-03-17T22:44:08.259Z,9.50
2023-03-17T22:46:36.013Z,9.10
2023-03-17T22:49:03.115Z,9.05
2023-03-17T22:51:30.484Z,8.70
2023-03-17T22:53:57.725Z,8.80
2023-03-17T22:56:26.018Z,9.75
2023-03-17T22:58:53.462Z,10.18
2023-03-17T23:01:22.413Z,9.60
2023-03-17T23:03:50.144Z,9.60
2023-03-17T23:06:17.756Z,9.95
2023-03-17T23:08:45.916Z,9.10
2023-03-17T23:11:18.679Z,7.75
2023-03-17T23:13:47.139Z,9.80
2023-03-17T23:16:14.765Z,10.13
2023-03-17T23:18:44.138Z,10.52
2023-03-17T23:23:40.789Z,8.20
2023-03-17T23:26:09.264Z,9.00
2023-03-17T23:28:36.827Z,9.32
2023-03-17T23:31:04.390Z,9.80
2023-03-17T23:33:31.544Z,9.95
2023-03-17T23:35:58.848Z,9.63
2023-03-17T23:38:25.944Z,10.23
2023-03-17T23:40:56.057Z,8.40
2023-03-17T23:43:23.407Z,9.85
2023-03-17T23:45:54.037Z,10.07
2023-03-17T23:48:21.275Z,9.77
2023-03-17T23:50:51.603Z,8.77
2023-03-17T23:53:19.145Z,8.70
2023-03-17T23:55:46.798Z,9.30
2023-03-17T23:58:14.426Z,8.80
